This is the latest recevied weather packets stored in our database for station/object N0HOT. If no packets are shown the sender has not sent any weather packets the latest 10 day(s).
| Time | Temp. | Humidity | Pressure | Rain* | Wind** | Luminosity | Snow |
|---|---|---|---|---|---|---|---|
| 1777927261 | 20.56° C | 23% | 998.6 hPa | 0 mm | - | 222 W/m² | - |
| 1777926959 | 20.56° C | 22% | 998.6 hPa | 0 mm | - | 247 W/m² | - |
| 1777926656 | 20.56° C | 22% | 998.6 hPa | 0 mm | - | 260 W/m² | - |
| 1777926351 | 21.11° C | 21% | 998.6 hPa | 0 mm | - | 273 W/m² | - |
| 1777926048 | 21.11° C | 21% | 998.6 hPa | 0 mm | - | 271 W/m² | - |
| 1777925745 | 21.67° C | 19% | 998.3 hPa | 0 mm | - | 239 W/m² | - |
| 1777925443 | 22.22° C | 19% | 998.3 hPa | 0 mm | - | 229 W/m² | - |
| 1777925139 | 22.22° C | 18% | 998.3 hPa | 0 mm | - | 254 W/m² | - |
| 1777924836 | 22.78° C | 18% | 998 hPa | 0 mm | - | 406 W/m² | - |
| 1777924532 | 22.78° C | 19% | 998 hPa | 0 mm | - | 356 W/m² | - |
| 1777924229 | 22.78° C | 20% | 998 hPa | 0 mm | - | 355 W/m² | - |
| 1777923926 | 23.33° C | 22% | 997.6 hPa | 0 mm | - | 365 W/m² | - |
| 1777923621 | 23.33° C | 24% | 997.6 hPa | 0 mm | - | 325 W/m² | - |
| 1777923318 | 23.33° C | 22% | 997.6 hPa | 0 mm | - | 426 W/m² | - |
| 1777923017 | 23.33° C | 23% | 997.6 hPa | 0 mm | - | 528 W/m² | - |
| 1777922714 | 23.33° C | 23% | 997.3 hPa | 0 mm | - | 577 W/m² | - |
| 1777922413 | 23.33° C | 21% | 997.6 hPa | 0 mm | - | 612 W/m² | - |
| 1777922110 | 23.33° C | 23% | 997.3 hPa | 0 mm | - | 689 W/m² | - |
| 1777921806 | 23.33° C | 22% | 997.6 hPa | 0 mm | - | 583 W/m² | - |
| 1777921502 | 23.33° C | 22% | 997.3 hPa | 0 mm | - | 651 W/m² | - |
| 1777921198 | 23.33° C | 22% | 997.3 hPa | 0 mm | - | 440 W/m² | - |
| 1777920895 | 23.33° C | 24% | 997 hPa | 0 mm | - | 572 W/m² | - |
| 1777920592 | 23.89° C | 21% | 997.3 hPa | 0 mm | - | 467 W/m² | - |
| 1777920287 | 23.89° C | 22% | 997.3 hPa | 0 mm | - | 507 W/m² | - |
| 1777919983 | 24.44° C | 23% | 997.3 hPa | 0 mm | - | 584 W/m² | - |
* Rain latest hour (hover to see other rain measurements)
** Current wind speed in m/s (hover to see current wind gust speed)